sensor_id;sensor_type;location;lat;lon;timestamp;temperature;humidity
67279;DHT22;54193;53.746;10.058;2023-02-19T00:00:17;3.56;95.76
67279;DHT22;54193;53.746;10.058;2023-02-19T00:03:03;3.49;95.65
67279;DHT22;54193;53.746;10.058;2023-02-19T00:05:48;3.52;95.77
67279;DHT22;54193;53.746;10.058;2023-02-19T00:08:35;3.54;95.77
67279;DHT22;54193;53.746;10.058;2023-02-19T00:11:26;3.58;95.65
67279;DHT22;54193;53.746;10.058;2023-02-19T00:14:15;3.55;95.64
67279;DHT22;54193;53.746;10.058;2023-02-19T00:17:01;3.63;95.67
67279;DHT22;54193;53.746;10.058;2023-02-19T00:19:47;3.55;95.59
67279;DHT22;54193;53.746;10.058;2023-02-19T00:22:32;3.59;95.68
67279;DHT22;54193;53.746;10.058;2023-02-19T00:25:18;3.58;95.69
67279;DHT22;54193;53.746;10.058;2023-02-19T00:28:04;3.62;95.72
67279;DHT22;54193;53.746;10.058;2023-02-19T00:30:50;3.63;95.73
67279;DHT22;54193;53.746;10.058;2023-02-19T00:33:35;3.59;95.69
67279;DHT22;54193;53.746;10.058;2023-02-19T00:36:21;3.59;95.68
67279;DHT22;54193;53.746;10.058;2023-02-19T00:39:09;3.51;95.63
67279;DHT22;54193;53.746;10.058;2023-02-19T00:41:55;3.51;95.62
67279;DHT22;54193;53.746;10.058;2023-02-19T00:44:41;3.38;95.46
67279;DHT22;54193;53.746;10.058;2023-02-19T00:47:26;3.41;95.64
67279;DHT22;54193;53.746;10.058;2023-02-19T00:50:12;3.38;95.62
67279;DHT22;54193;53.746;10.058;2023-02-19T00:52:58;3.43;95.60
67279;DHT22;54193;53.746;10.058;2023-02-19T00:55:43;3.43;95.66
67279;DHT22;54193;53.746;10.058;2023-02-19T00:58:29;3.34;95.57
67279;DHT22;54193;53.746;10.058;2023-02-19T01:01:15;3.39;95.64
67279;DHT22;54193;53.746;10.058;2023-02-19T01:04:00;3.49;95.68
67279;DHT22;54193;53.746;10.058;2023-02-19T01:06:46;3.48;95.66
67279;DHT22;54193;53.746;10.058;2023-02-19T01:09:33;3.34;95.59
67279;DHT22;54193;53.746;10.058;2023-02-19T01:12:19;3.32;95.67
67279;DHT22;54193;53.746;10.058;2023-02-19T01:15:04;3.41;95.72
67279;DHT22;54193;53.746;10.058;2023-02-19T01:17:50;3.48;95.67
67279;DHT22;54193;53.746;10.058;2023-02-19T01:20:40;3.41;95.62
67279;DHT22;54193;53.746;10.058;2023-02-19T01:23:26;3.32;95.68
67279;DHT22;54193;53.746;10.058;2023-02-19T01:26:14;3.36;95.69
67279;DHT22;54193;53.746;10.058;2023-02-19T01:29:00;3.43;95.74
67279;DHT22;54193;53.746;10.058;2023-02-19T01:31:46;3.45;95.54
67279;DHT22;54193;53.746;10.058;2023-02-19T01:34:32;3.39;95.60
67279;DHT22;54193;53.746;10.058;2023-02-19T01:37:18;3.46;95.65
67279;DHT22;54193;53.746;10.058;2023-02-19T01:40:04;3.38;95.59
67279;DHT22;54193;53.746;10.058;2023-02-19T01:42:50;3.46;95.63
67279;DHT22;54193;53.746;10.058;2023-02-19T01:45:42;3.43;95.61
67279;DHT22;54193;53.746;10.058;2023-02-19T01:48:37;3.24;95.42
67279;DHT22;54193;53.746;10.058;2023-02-19T01:51:23;3.24;95.27
67279;DHT22;54193;53.746;10.058;2023-02-19T01:54:11;3.27;95.31
67279;DHT22;54193;53.746;10.058;2023-02-19T01:56:58;3.13;95.20
67279;DHT22;54193;53.746;10.058;2023-02-19T01:59:48;3.18;95.39
67279;DHT22;54193;53.746;10.058;2023-02-19T02:02:35;3.18;95.11
67279;DHT22;54193;53.746;10.058;2023-02-19T02:08:11;3.01;95.08
67279;DHT22;54193;53.746;10.058;2023-02-19T02:11:16;3.00;95.19
67279;DHT22;54193;53.746;10.058;2023-02-19T02:14:02;3.05;94.86
67279;DHT22;54193;53.746;10.058;2023-02-19T02:17:28;3.03;94.94
67279;DHT22;54193;53.746;10.058;2023-02-19T02:23:22;2.94;95.09
67279;DHT22;54193;53.746;10.058;2023-02-19T02:26:34;3.00;95.21
67279;DHT22;54193;53.746;10.058;2023-02-19T02:29:46;2.99;95.05
67279;DHT22;54193;53.746;10.058;2023-02-19T02:32:41;2.94;94.96
67279;DHT22;54193;53.746;10.058;2023-02-19T02:35:48;2.87;94.67
67279;DHT22;54193;53.746;10.058;2023-02-19T02:38:38;2.83;94.61
67279;DHT22;54193;53.746;10.058;2023-02-19T02:41:25;2.86;94.74
67279;DHT22;54193;53.746;10.058;2023-02-19T02:44:11;2.94;94.85
67279;DHT22;54193;53.746;10.058;2023-02-19T02:46:56;3.03;94.91
67279;DHT22;54193;53.746;10.058;2023-02-19T02:49:42;2.96;94.91
67279;DHT22;54193;53.746;10.058;2023-02-19T02:52:50;2.94;94.97
67279;DHT22;54193;53.746;10.058;2023-02-19T02:55:56;2.84;94.93
67279;DHT22;54193;53.746;10.058;2023-02-19T02:58:42;2.83;94.94
67279;DHT22;54193;53.746;10.058;2023-02-19T03:01:36;2.77;94.95
67279;DHT22;54193;53.746;10.058;2023-02-19T03:11:06;2.63;95.23
67279;DHT22;54193;53.746;10.058;2023-02-19T03:14:15;2.67;95.16
67279;DHT22;54193;53.746;10.058;2023-02-19T03:17:26;2.66;95.19
67279;DHT22;54193;53.746;10.058;2023-02-19T03:20:37;2.57;95.32
67279;DHT22;54193;53.746;10.058;2023-02-19T03:23:27;2.59;95.29
67279;DHT22;54193;53.746;10.058;2023-02-19T03:26:33;2.52;95.28
67279;DHT22;54193;53.746;10.058;2023-02-19T03:29:22;2.52;95.50
67279;DHT22;54193;53.746;10.058;2023-02-19T03:32:14;2.55;95.52
67279;DHT22;54193;53.746;10.058;2023-02-19T03:35:08;2.60;95.41
67279;DHT22;54193;53.746;10.058;2023-02-19T03:38:05;2.59;95.42
67279;DHT22;54193;53.746;10.058;2023-02-19T03:41:19;2.56;95.30
67279;DHT22;54193;53.746;10.058;2023-02-19T03:50:35;2.28;95.32
67279;DHT22;54193;53.746;10.058;2023-02-19T03:53:25;2.22;95.43
67279;DHT22;54193;53.746;10.058;2023-02-19T03:56:49;2.27;95.46
67279;DHT22;54193;53.746;10.058;2023-02-19T03:59:49;2.24;95.50
67279;DHT22;54193;53.746;10.058;2023-02-19T04:02:57;2.18;95.39
67279;DHT22;54193;53.746;10.058;2023-02-19T04:05:48;2.08;95.36
67279;DHT22;54193;53.746;10.058;2023-02-19T04:08:37;2.04;95.40
67279;DHT22;54193;53.746;10.058;2023-02-19T04:11:26;2.04;95.31
67279;DHT22;54193;53.746;10.058;2023-02-19T04:14:20;1.99;95.43
67279;DHT22;54193;53.746;10.058;2023-02-19T04:17:23;1.90;95.26
67279;DHT22;54193;53.746;10.058;2023-02-19T04:20:11;1.81;95.42
67279;DHT22;54193;53.746;10.058;2023-02-19T04:22:58;1.77;95.48
67279;DHT22;54193;53.746;10.058;2023-02-19T04:25:46;1.74;95.45
67279;DHT22;54193;53.746;10.058;2023-02-19T04:28:33;1.72;95.67
67279;DHT22;54193;53.746;10.058;2023-02-19T04:31:19;1.64;95.58
67279;DHT22;54193;53.746;10.058;2023-02-19T04:34:05;1.63;95.76
67279;DHT22;54193;53.746;10.058;2023-02-19T04:36:51;1.52;95.76
67279;DHT22;54193;53.746;10.058;2023-02-19T04:39:36;1.53;95.91
67279;DHT22;54193;53.746;10.058;2023-02-19T04:42:22;1.64;95.92
67279;DHT22;54193;53.746;10.058;2023-02-19T04:45:08;1.66;95.73
67279;DHT22;54193;53.746;10.058;2023-02-19T04:47:53;1.73;95.63
67279;DHT22;54193;53.746;10.058;2023-02-19T04:50:39;1.70;95.71
67279;DHT22;54193;53.746;10.058;2023-02-19T04:53:25;1.67;95.71
67279;DHT22;54193;53.746;10.058;2023-02-19T04:56:13;1.67;95.71
67279;DHT22;54193;53.746;10.058;2023-02-19T04:58:59;1.70;95.60
67279;DHT22;54193;53.746;10.058;2023-02-19T05:01:45;1.64;95.59
67279;DHT22;54193;53.746;10.058;2023-02-19T05:04:31;1.59;95.69
67279;DHT22;54193;53.746;10.058;2023-02-19T05:07:17;1.56;95.59
67279;DHT22;54193;53.746;10.058;2023-02-19T05:10:03;1.51;95.57
67279;DHT22;54193;53.746;10.058;2023-02-19T05:12:48;1.48;95.52
67279;DHT22;54193;53.746;10.058;2023-02-19T05:15:34;1.43;95.74
67279;DHT22;54193;53.746;10.058;2023-02-19T05:18:20;1.39;95.62
67279;DHT22;54193;53.746;10.058;2023-02-19T05:21:06;1.49;95.76
67279;DHT22;54193;53.746;10.058;2023-02-19T05:23:52;1.48;95.58
67279;DHT22;54193;53.746;10.058;2023-02-19T05:26:37;1.46;95.56
67279;DHT22;54193;53.746;10.058;2023-02-19T05:29:23;1.45;95.68
67279;DHT22;54193;53.746;10.058;2023-02-19T05:32:09;1.38;95.61
67279;DHT22;54193;53.746;10.058;2023-02-19T05:34:54;1.30;95.79
67279;DHT22;54193;53.746;10.058;2023-02-19T05:37:40;1.25;95.64
67279;DHT22;54193;53.746;10.058;2023-02-19T05:40:26;1.31;95.60
67279;DHT22;54193;53.746;10.058;2023-02-19T05:43:12;1.21;95.69
67279;DHT22;54193;53.746;10.058;2023-02-19T05:45:58;1.17;95.72
67279;DHT22;54193;53.746;10.058;2023-02-19T05:48:43;1.25;95.80
67279;DHT22;54193;53.746;10.058;2023-02-19T05:51:29;1.23;95.83
67279;DHT22;54193;53.746;10.058;2023-02-19T05:54:15;1.21;95.82
67279;DHT22;54193;53.746;10.058;2023-02-19T05:57:00;1.09;95.79
67279;DHT22;54193;53.746;10.058;2023-02-19T05:59:46;1.15;95.70
67279;DHT22;54193;53.746;10.058;2023-02-19T06:02:32;1.21;95.79
67279;DHT22;54193;53.746;10.058;2023-02-19T06:05:17;1.18;95.72
67279;DHT22;54193;53.746;10.058;2023-02-19T06:08:03;1.21;95.73
67279;DHT22;54193;53.746;10.058;2023-02-19T06:10:49;1.25;95.86
67279;DHT22;54193;53.746;10.058;2023-02-19T06:13:34;1.28;95.80
67279;DHT22;54193;53.746;10.058;2023-02-19T06:16:20;1.24;95.90
67279;DHT22;54193;53.746;10.058;2023-02-19T06:19:06;1.28;95.93
67279;DHT22;54193;53.746;10.058;2023-02-19T06:21:52;1.27;95.89
67279;DHT22;54193;53.746;10.058;2023-02-19T06:24:37;1.27;95.81
67279;DHT22;54193;53.746;10.058;2023-02-19T06:27:23;1.30;95.87
67279;DHT22;54193;53.746;10.058;2023-02-19T06:30:10;1.28;95.77
67279;DHT22;54193;53.746;10.058;2023-02-19T06:32:56;1.28;95.77
67279;DHT22;54193;53.746;10.058;2023-02-19T06:35:41;1.32;95.87
67279;DHT22;54193;53.746;10.058;2023-02-19T06:38:27;1.31;95.91
67279;DHT22;54193;53.746;10.058;2023-02-19T06:41:13;1.32;95.96
67279;DHT22;54193;53.746;10.058;2023-02-19T06:44:00;1.34;95.86
67279;DHT22;54193;53.746;10.058;2023-02-19T06:46:47;1.34;95.93
67279;DHT22;54193;53.746;10.058;2023-02-19T06:49:33;1.36;95.95
67279;DHT22;54193;53.746;10.058;2023-02-19T06:52:19;1.27;95.79
67279;DHT22;54193;53.746;10.058;2023-02-19T06:55:04;1.20;95.80
67279;DHT22;54193;53.746;10.058;2023-02-19T06:57:50;1.20;95.79
67279;DHT22;54193;53.746;10.058;2023-02-19T07:00:35;1.28;95.95
67279;DHT22;54193;53.746;10.058;2023-02-19T07:03:22;1.24;95.79
67279;DHT22;54193;53.746;10.058;2023-02-19T07:06:07;1.23;95.76
67279;DHT22;54193;53.746;10.058;2023-02-19T07:08:54;1.30;95.79
67279;DHT22;54193;53.746;10.058;2023-02-19T07:11:40;1.43;95.76
67279;DHT22;54193;53.746;10.058;2023-02-19T07:14:28;1.45;95.73
67279;DHT22;54193;53.746;10.058;2023-02-19T07:17:15;1.51;95.73
67279;DHT22;54193;53.746;10.058;2023-02-19T07:20:00;1.56;95.73
67279;DHT22;54193;53.746;10.058;2023-02-19T07:22:46;1.64;95.75
67279;DHT22;54193;53.746;10.058;2023-02-19T07:25:32;1.70;95.77
67279;DHT22;54193;53.746;10.058;2023-02-19T07:28:17;1.81;95.82
67279;DHT22;54193;53.746;10.058;2023-02-19T07:31:03;1.96;95.72
67279;DHT22;54193;53.746;10.058;2023-02-19T07:33:49;1.97;95.56
67279;DHT22;54193;53.746;10.058;2023-02-19T07:36:35;2.08;95.60
67279;DHT22;54193;53.746;10.058;2023-02-19T07:39:21;2.08;95.48
67279;DHT22;54193;53.746;10.058;2023-02-19T07:42:06;2.14;95.48
67279;DHT22;54193;53.746;10.058;2023-02-19T07:44:52;2.22;95.46
67279;DHT22;54193;53.746;10.058;2023-02-19T07:47:39;2.25;95.45
67279;DHT22;54193;53.746;10.058;2023-02-19T07:50:24;2.22;95.37
67279;DHT22;54193;53.746;10.058;2023-02-19T07:53:10;2.20;95.38
67279;DHT22;54193;53.746;10.058;2023-02-19T07:56:00;2.17;95.27
67279;DHT22;54193;53.746;10.058;2023-02-19T07:58:46;2.10;95.27
67279;DHT22;54193;53.746;10.058;2023-02-19T08:01:32;2.08;95.25
67279;DHT22;54193;53.746;10.058;2023-02-19T08:04:36;2.11;95.24
67279;DHT22;54193;53.746;10.058;2023-02-19T08:07:21;2.10;95.26
67279;DHT22;54193;53.746;10.058;2023-02-19T08:10:09;2.17;95.28
67279;DHT22;54193;53.746;10.058;2023-02-19T08:13:15;2.37;95.06
67279;DHT22;54193;53.746;10.058;2023-02-19T08:18:49;2.84;95.06
67279;DHT22;54193;53.746;10.058;2023-02-19T08:21:35;3.04;94.92
67279;DHT22;54193;53.746;10.058;2023-02-19T08:24:21;3.15;94.89
67279;DHT22;54193;53.746;10.058;2023-02-19T08:27:06;3.34;94.46
67279;DHT22;54193;53.746;10.058;2023-02-19T08:29:52;3.52;94.51
67279;DHT22;54193;53.746;10.058;2023-02-19T08:32:38;3.36;94.22
67279;DHT22;54193;53.746;10.058;2023-02-19T08:35:24;3.51;93.87
67279;DHT22;54193;53.746;10.058;2023-02-19T08:38:11;3.93;93.84
67279;DHT22;54193;53.746;10.058;2023-02-19T08:40:57;3.89;93.58
67279;DHT22;54193;53.746;10.058;2023-02-19T08:43:43;4.20;93.12
67279;DHT22;54193;53.746;10.058;2023-02-19T08:46:31;4.33;92.84
67279;DHT22;54193;53.746;10.058;2023-02-19T08:49:25;4.55;92.64
67279;DHT22;54193;53.746;10.058;2023-02-19T08:52:11;4.48;91.56
67279;DHT22;54193;53.746;10.058;2023-02-19T08:54:58;4.96;92.33
67279;DHT22;54193;53.746;10.058;2023-02-19T08:57:44;4.87;90.70
67279;DHT22;54193;53.746;10.058;2023-02-19T09:00:33;5.21;91.67
67279;DHT22;54193;53.746;10.058;2023-02-19T09:03:39;5.58;91.08
67279;DHT22;54193;53.746;10.058;2023-02-19T09:06:26;5.76;89.99
67279;DHT22;54193;53.746;10.058;2023-02-19T09:09:12;6.30;90.60
67279;DHT22;54193;53.746;10.058;2023-02-19T09:11:59;6.59;88.83
67279;DHT22;54193;53.746;10.058;2023-02-19T09:14:44;6.97;88.97
67279;DHT22;54193;53.746;10.058;2023-02-19T09:17:30;7.21;87.68
67279;DHT22;54193;53.746;10.058;2023-02-19T09:20:16;7.41;85.89
67279;DHT22;54193;53.746;10.058;2023-02-19T09:23:02;7.54;86.16
67279;DHT22;54193;53.746;10.058;2023-02-19T09:25:47;7.94;83.77
67279;DHT22;54193;53.746;10.058;2023-02-19T09:28:36;8.36;84.06
67279;DHT22;54193;53.746;10.058;2023-02-19T09:31:24;8.54;81.00
67279;DHT22;54193;53.746;10.058;2023-02-19T09:34:10;7.37;80.18
67279;DHT22;54193;53.746;10.058;2023-02-19T09:36:57;8.64;82.77
67279;DHT22;54193;53.746;10.058;2023-02-19T09:39:43;8.82;78.17
67279;DHT22;54193;53.746;10.058;2023-02-19T09:42:31;8.58;75.88
67279;DHT22;54193;53.746;10.058;2023-02-19T09:45:23;8.42;77.10
67279;DHT22;54193;53.746;10.058;2023-02-19T09:48:11;7.66;80.85
67279;DHT22;54193;53.746;10.058;2023-02-19T09:50:57;9.93;75.44
67279;DHT22;54193;53.746;10.058;2023-02-19T09:53:47;10.88;71.44
67279;DHT22;54193;53.746;10.058;2023-02-19T09:56:34;11.37;67.29
67279;DHT22;54193;53.746;10.058;2023-02-19T09:59:26;12.23;65.37
67279;DHT22;54193;53.746;10.058;2023-02-19T10:02:18;9.45;67.36
67279;DHT22;54193;53.746;10.058;2023-02-19T10:05:12;6.93;77.34
67279;DHT22;54193;53.746;10.058;2023-02-19T10:07:58;6.76;80.16
67279;DHT22;54193;53.746;10.058;2023-02-19T10:10:45;7.35;75.13
67279;DHT22;54193;53.746;10.058;2023-02-19T10:13:39;6.40;77.85
67279;DHT22;54193;53.746;10.058;2023-02-19T10:16:27;6.89;81.09
67279;DHT22;54193;53.746;10.058;2023-02-19T10:19:16;6.85;79.29
67279;DHT22;54193;53.746;10.058;2023-02-19T10:22:02;6.85;78.32
67279;DHT22;54193;53.746;10.058;2023-02-19T10:24:51;6.52;78.82
67279;DHT22;54193;53.746;10.058;2023-02-19T10:27:37;6.25;79.47
67279;DHT22;54193;53.746;10.058;2023-02-19T10:30:25;6.09;79.58
67279;DHT22;54193;53.746;10.058;2023-02-19T10:33:14;6.10;80.27
67279;DHT22;54193;53.746;10.058;2023-02-19T10:36:06;6.02;77.29
67279;DHT22;54193;53.746;10.058;2023-02-19T10:38:52;5.94;79.97
67279;DHT22;54193;53.746;10.058;2023-02-19T10:41:40;5.76;78.24
67279;DHT22;54193;53.746;10.058;2023-02-19T10:44:28;5.86;78.61
67279;DHT22;54193;53.746;10.058;2023-02-19T10:47:21;6.13;78.20
67279;DHT22;54193;53.746;10.058;2023-02-19T10:50:31;6.02;77.58
67279;DHT22;54193;53.746;10.058;2023-02-19T10:53:22;6.17;78.57
67279;DHT22;54193;53.746;10.058;2023-02-19T10:56:12;6.06;76.67
67279;DHT22;54193;53.746;10.058;2023-02-19T10:59:24;6.31;76.83
67279;DHT22;54193;53.746;10.058;2023-02-19T11:02:20;6.23;77.36
67279;DHT22;54193;53.746;10.058;2023-02-19T11:05:18;6.23;76.26
67279;DHT22;54193;53.746;10.058;2023-02-19T11:08:04;6.18;76.98
67279;DHT22;54193;53.746;10.058;2023-02-19T11:10:50;6.37;77.45
67279;DHT22;54193;53.746;10.058;2023-02-19T11:13:35;6.49;77.81
67279;DHT22;54193;53.746;10.058;2023-02-19T11:16:23;6.31;77.00
67279;DHT22;54193;53.746;10.058;2023-02-19T11:25:26;6.46;74.46
67279;DHT22;54193;53.746;10.058;2023-02-19T11:28:34;6.16;73.27
67279;DHT22;54193;53.746;10.058;2023-02-19T11:31:26;6.04;74.35
67279;DHT22;54193;53.746;10.058;2023-02-19T11:37:13;6.30;73.69
67279;DHT22;54193;53.746;10.058;2023-02-19T11:39:59;6.41;73.55
67279;DHT22;54193;53.746;10.058;2023-02-19T11:43:01;6.45;71.57
67279;DHT22;54193;53.746;10.058;2023-02-19T11:46:08;6.28;70.75
67279;DHT22;54193;53.746;10.058;2023-02-19T12:01:08;6.64;69.01
67279;DHT22;54193;53.746;10.058;2023-02-19T12:10:30;6.65;71.17
67279;DHT22;54193;53.746;10.058;2023-02-19T12:16:57;6.46;71.19
67279;DHT22;54193;53.746;10.058;2023-02-19T12:20:12;6.59;70.11
67279;DHT22;54193;53.746;10.058;2023-02-19T12:26:28;6.75;70.78
67279;DHT22;54193;53.746;10.058;2023-02-19T12:29:21;6.68;70.89
67279;DHT22;54193;53.746;10.058;2023-02-19T12:32:29;6.71;72.01
67279;DHT22;54193;53.746;10.058;2023-02-19T12:38:26;6.80;69.99
67279;DHT22;54193;53.746;10.058;2023-02-19T12:41:48;6.88;71.76
67279;DHT22;54193;53.746;10.058;2023-02-19T12:44:46;6.97;72.07
67279;DHT22;54193;53.746;10.058;2023-02-19T12:47:37;6.97;72.17
67279;DHT22;54193;53.746;10.058;2023-02-19T12:50:26;6.89;72.63
67279;DHT22;54193;53.746;10.058;2023-02-19T12:56:24;6.92;73.68
67279;DHT22;54193;53.746;10.058;2023-02-19T12:59:30;6.90;73.23
67279;DHT22;54193;53.746;10.058;2023-02-19T13:02:22;6.95;72.44
67279;DHT22;54193;53.746;10.058;2023-02-19T13:08:26;7.03;72.51
67279;DHT22;54193;53.746;10.058;2023-02-19T13:11:17;7.01;71.46
67279;DHT22;54193;53.746;10.058;2023-02-19T13:14:20;7.04;69.88
67279;DHT22;54193;53.746;10.058;2023-02-19T13:17:33;6.96;71.21
67279;DHT22;54193;53.746;10.058;2023-02-19T13:23:27;6.99;69.42
67279;DHT22;54193;53.746;10.058;2023-02-19T13:26:54;7.01;69.72
67279;DHT22;54193;53.746;10.058;2023-02-19T13:32:41;7.08;71.88
67279;DHT22;54193;53.746;10.058;2023-02-19T13:36:09;7.16;73.61
67279;DHT22;54193;53.746;10.058;2023-02-19T13:38:56;7.14;72.73
67279;DHT22;54193;53.746;10.058;2023-02-19T13:41:51;7.14;71.42
67279;DHT22;54193;53.746;10.058;2023-02-19T13:44:39;7.14;71.38
67279;DHT22;54193;53.746;10.058;2023-02-19T13:47:45;7.10;71.41
67279;DHT22;54193;53.746;10.058;2023-02-19T13:50:33;7.10;71.81
67279;DHT22;54193;53.746;10.058;2023-02-19T13:59:24;7.06;71.31
67279;DHT22;54193;53.746;10.058;2023-02-19T14:07:53;7.04;72.12
67279;DHT22;54193;53.746;10.058;2023-02-19T14:10:49;6.93;71.76
67279;DHT22;54193;53.746;10.058;2023-02-19T14:14:22;6.90;72.72
67279;DHT22;54193;53.746;10.058;2023-02-19T14:20:08;6.90;74.24
67279;DHT22;54193;53.746;10.058;2023-02-19T14:23:14;6.88;72.82
67279;DHT22;54193;53.746;10.058;2023-02-19T14:26:01;6.82;72.36
67279;DHT22;54193;53.746;10.058;2023-02-19T14:28:50;6.76;73.60
67279;DHT22;54193;53.746;10.058;2023-02-19T14:31:37;6.72;74.65
67279;DHT22;54193;53.746;10.058;2023-02-19T14:34:23;6.72;75.24
67279;DHT22;54193;53.746;10.058;2023-02-19T14:37:18;6.73;75.60
67279;DHT22;54193;53.746;10.058;2023-02-19T14:40:05;6.73;76.65
67279;DHT22;54193;53.746;10.058;2023-02-19T14:42:52;6.78;76.70
67279;DHT22;54193;53.746;10.058;2023-02-19T14:45:42;6.71;76.84
67279;DHT22;54193;53.746;10.058;2023-02-19T14:48:34;6.65;77.12
67279;DHT22;54193;53.746;10.058;2023-02-19T14:54:36;6.40;77.19
67279;DHT22;54193;53.746;10.058;2023-02-19T14:57:28;6.32;77.43
67279;DHT22;54193;53.746;10.058;2023-02-19T15:03:33;6.24;76.34
67279;DHT22;54193;53.746;10.058;2023-02-19T15:06:19;6.23;76.07
67279;DHT22;54193;53.746;10.058;2023-02-19T15:09:07;6.16;76.10
67279;DHT22;54193;53.746;10.058;2023-02-19T15:11:53;6.11;76.60
67279;DHT22;54193;53.746;10.058;2023-02-19T15:14:39;6.00;76.76
67279;DHT22;54193;53.746;10.058;2023-02-19T15:17:28;5.94;77.04
67279;DHT22;54193;53.746;10.058;2023-02-19T15:20:19;5.87;77.33
67279;DHT22;54193;53.746;10.058;2023-02-19T15:23:07;5.79;77.65
67279;DHT22;54193;53.746;10.058;2023-02-19T15:25:52;5.76;77.40
67279;DHT22;54193;53.746;10.058;2023-02-19T15:28:38;5.79;76.39
67279;DHT22;54193;53.746;10.058;2023-02-19T15:31:24;5.76;75.02
67279;DHT22;54193;53.746;10.058;2023-02-19T15:34:18;5.65;71.06
67279;DHT22;54193;53.746;10.058;2023-02-19T15:37:07;5.62;71.72
67279;DHT22;54193;53.746;10.058;2023-02-19T15:39:54;5.56;72.75
67279;DHT22;54193;53.746;10.058;2023-02-19T15:42:43;5.59;71.81
67279;DHT22;54193;53.746;10.058;2023-02-19T15:45:39;5.54;74.18
67279;DHT22;54193;53.746;10.058;2023-02-19T15:48:29;5.44;74.16
67279;DHT22;54193;53.746;10.058;2023-02-19T15:51:24;5.37;75.20
67279;DHT22;54193;53.746;10.058;2023-02-19T15:54:21;5.23;75.26
67279;DHT22;54193;53.746;10.058;2023-02-19T15:57:13;5.28;76.09
67279;DHT22;54193;53.746;10.058;2023-02-19T16:00:18;5.21;76.29
67279;DHT22;54193;53.746;10.058;2023-02-19T16:03:04;5.28;77.04
67279;DHT22;54193;53.746;10.058;2023-02-19T16:06:03;5.20;77.10
67279;DHT22;54193;53.746;10.058;2023-02-19T16:09:00;5.11;77.99
67279;DHT22;54193;53.746;10.058;2023-02-19T16:11:53;5.07;78.72
67279;DHT22;54193;53.746;10.058;2023-02-19T16:14:39;5.06;79.30
67279;DHT22;54193;53.746;10.058;2023-02-19T16:17:26;4.93;80.33
67279;DHT22;54193;53.746;10.058;2023-02-19T16:20:23;4.86;80.95
67279;DHT22;54193;53.746;10.058;2023-02-19T16:23:12;4.89;81.13
67279;DHT22;54193;53.746;10.058;2023-02-19T16:26:01;4.84;81.53
67279;DHT22;54193;53.746;10.058;2023-02-19T16:28:53;4.79;82.07
67279;DHT22;54193;53.746;10.058;2023-02-19T16:31:49;4.79;82.44
67279;DHT22;54193;53.746;10.058;2023-02-19T16:34:41;4.71;83.12
67279;DHT22;54193;53.746;10.058;2023-02-19T16:45:49;4.46;84.27
67279;DHT22;54193;53.746;10.058;2023-02-19T16:48:35;4.46;84.46
67279;DHT22;54193;53.746;10.058;2023-02-19T16:51:24;4.41;84.78
67279;DHT22;54193;53.746;10.058;2023-02-19T16:54:10;4.31;84.75
67279;DHT22;54193;53.746;10.058;2023-02-19T16:56:56;4.22;85.35
67279;DHT22;54193;53.746;10.058;2023-02-19T16:59:42;4.14;85.50
67279;DHT22;54193;53.746;10.058;2023-02-19T17:02:27;3.98;86.17
67279;DHT22;54193;53.746;10.058;2023-02-19T17:05:14;3.79;86.30
67279;DHT22;54193;53.746;10.058;2023-02-19T17:08:00;3.82;87.08
67279;DHT22;54193;53.746;10.058;2023-02-19T17:10:46;3.66;87.26
67279;DHT22;54193;53.746;10.058;2023-02-19T17:13:31;3.62;87.34
67279;DHT22;54193;53.746;10.058;2023-02-19T17:16:26;3.52;87.62
67279;DHT22;54193;53.746;10.058;2023-02-19T17:19:14;3.49;87.95
67279;DHT22;54193;53.746;10.058;2023-02-19T17:22:00;3.42;88.15
67279;DHT22;54193;53.746;10.058;2023-02-19T17:24:46;3.42;88.46
67279;DHT22;54193;53.746;10.058;2023-02-19T17:27:32;3.48;88.63
67279;DHT22;54193;53.746;10.058;2023-02-19T17:30:28;3.52;88.51
67279;DHT22;54193;53.746;10.058;2023-02-19T17:33:14;3.58;88.65
67279;DHT22;54193;53.746;10.058;2023-02-19T17:36:00;3.68;88.54
67279;DHT22;54193;53.746;10.058;2023-02-19T17:38:46;3.76;88.16
67279;DHT22;54193;53.746;10.058;2023-02-19T17:41:32;3.78;88.31
67279;DHT22;54193;53.746;10.058;2023-02-19T17:44:17;3.87;88.08
67279;DHT22;54193;53.746;10.058;2023-02-19T17:47:03;3.96;87.92
67279;DHT22;54193;53.746;10.058;2023-02-19T17:49:50;4.00;87.70
67279;DHT22;54193;53.746;10.058;2023-02-19T17:52:35;3.97;88.05
67279;DHT22;54193;53.746;10.058;2023-02-19T17:55:21;4.00;87.86
67279;DHT22;54193;53.746;10.058;2023-02-19T17:58:07;4.01;87.88
67279;DHT22;54193;53.746;10.058;2023-02-19T18:00:52;4.07;87.84
67279;DHT22;54193;53.746;10.058;2023-02-19T18:03:38;4.17;87.48
67279;DHT22;54193;53.746;10.058;2023-02-19T18:06:24;4.15;87.46
67279;DHT22;54193;53.746;10.058;2023-02-19T18:09:10;4.15;87.58
67279;DHT22;54193;53.746;10.058;2023-02-19T18:11:59;4.25;87.23
67279;DHT22;54193;53.746;10.058;2023-02-19T18:14:45;4.33;87.13
67279;DHT22;54193;53.746;10.058;2023-02-19T18:17:31;4.41;86.70
67279;DHT22;54193;53.746;10.058;2023-02-19T18:20:19;4.45;86.65
67279;DHT22;54193;53.746;10.058;2023-02-19T18:23:05;4.44;86.77
67279;DHT22;54193;53.746;10.058;2023-02-19T18:25:51;4.44;86.74
67279;DHT22;54193;53.746;10.058;2023-02-19T18:28:37;4.41;86.90
67279;DHT22;54193;53.746;10.058;2023-02-19T18:31:23;4.45;87.10
67279;DHT22;54193;53.746;10.058;2023-02-19T18:34:15;4.37;87.34
67279;DHT22;54193;53.746;10.058;2023-02-19T18:37:02;4.35;87.52
67279;DHT22;54193;53.746;10.058;2023-02-19T18:39:47;4.31;87.66
67279;DHT22;54193;53.746;10.058;2023-02-19T18:42:33;4.33;87.74
67279;DHT22;54193;53.746;10.058;2023-02-19T18:45:20;4.33;87.57
67279;DHT22;54193;53.746;10.058;2023-02-19T18:48:06;4.28;87.70
67279;DHT22;54193;53.746;10.058;2023-02-19T18:50:51;4.37;87.57
67279;DHT22;54193;53.746;10.058;2023-02-19T18:53:37;4.40;87.66
67279;DHT22;54193;53.746;10.058;2023-02-19T18:56:23;4.41;87.74
67279;DHT22;54193;53.746;10.058;2023-02-19T18:59:09;4.40;87.56
67279;DHT22;54193;53.746;10.058;2023-02-19T19:01:55;4.45;87.69
67279;DHT22;54193;53.746;10.058;2023-02-19T19:04:41;4.45;88.03
67279;DHT22;54193;53.746;10.058;2023-02-19T19:07:27;4.44;88.03
67279;DHT22;54193;53.746;10.058;2023-02-19T19:10:13;4.46;88.20
67279;DHT22;54193;53.746;10.058;2023-02-19T19:12:59;4.45;88.22
67279;DHT22;54193;53.746;10.058;2023-02-19T19:15:48;4.44;88.33
67279;DHT22;54193;53.746;10.058;2023-02-19T19:18:35;4.35;88.51
67279;DHT22;54193;53.746;10.058;2023-02-19T19:21:23;4.24;88.84
67279;DHT22;54193;53.746;10.058;2023-02-19T19:24:08;4.18;89.08
67279;DHT22;54193;53.746;10.058;2023-02-19T19:26:54;4.17;89.09
67279;DHT22;54193;53.746;10.058;2023-02-19T19:29:40;4.06;89.36
67279;DHT22;54193;53.746;10.058;2023-02-19T19:32:26;3.91;89.69